Boomer, North Carolina
Current Conditions -  °F | °C
As of 3:15 PM on Monday 24 Nov 2014 (Local Time) from KUKF Reporting Station
Thunderstorm Thunderstorm  
Wind Chill: 70°   Ceiling: Unl
Heat Index: 70°   Visibility: 10mi
Dew Point: 54°   Wind: 8mph
Humidity: 56%   Direction: 200°SSW
Pressure: 29.77"   Gusts: 18mph
Location:  36.07°N, 81.25°W
Report Text: KUKF 242015Z AUTO 20007G16KT 160V220 10SM VCTS CLR 21/12 A2977 RMK AO2 LTG DSNT S
Loading
Personal Weather Stations






























Interactive Weather Map New forecast layout! Learn more

10-Day Weather Forecast

Advertisements
Track Severe Weather on mobile